createdAt,value
2023-05-20T00:01:22.330Z,100452.13
2023-05-20T00:04:27.209Z,100469.38
2023-05-20T00:07:32.872Z,100467.22
2023-05-20T00:10:38.530Z,100449.56
2023-05-20T00:13:42.596Z,100449.53
2023-05-20T00:16:46.881Z,100442.34
2023-05-20T00:19:51.399Z,100449.28
2023-05-20T00:22:55.703Z,100443.78
2023-05-20T00:26:00.826Z,100447.22
2023-05-20T00:29:05.488Z,100392.25
2023-05-20T00:32:09.473Z,100444.53
2023-05-20T00:35:14.028Z,100418.28
2023-05-20T00:38:17.906Z,100419.41
2023-05-20T00:41:22.673Z,100400.97
2023-05-20T00:44:27.493Z,100414.88
2023-05-20T00:47:35.167Z,100413.94
2023-05-20T00:50:40.297Z,100409.63
2023-05-20T00:53:45.446Z,100417.50
2023-05-20T00:56:49.769Z,100415.13
2023-05-20T00:59:54.741Z,100378.31
2023-05-20T01:02:58.836Z,100394.88
2023-05-20T01:06:04.288Z,100413.53
2023-05-20T01:09:08.776Z,100403.75
2023-05-20T01:12:24.718Z,100375.16
2023-05-20T01:15:29.718Z,100376.47
2023-05-20T01:18:34.557Z,100366.91
2023-05-20T01:21:39.552Z,100310.38
2023-05-20T01:24:45.252Z,100337.75
2023-05-20T01:27:51.048Z,100330.25
2023-05-20T01:30:58.364Z,100317.53
2023-05-20T01:34:03.416Z,100309.50
2023-05-20T01:37:09.412Z,100318.59
2023-05-20T01:40:16.484Z,100301.00
2023-05-20T01:43:20.768Z,100314.38
2023-05-20T01:46:24.729Z,100283.53
2023-05-20T01:49:29.776Z,100270.69
2023-05-20T01:52:35.004Z,100287.88
2023-05-20T01:55:39.349Z,100286.94
2023-05-20T01:58:43.324Z,100262.31
2023-05-20T02:01:47.391Z,100275.16
2023-05-20T02:04:54.667Z,100270.56
2023-05-20T02:07:59.109Z,100261.19
2023-05-20T02:11:03.185Z,100258.34
2023-05-20T02:14:07.543Z,100242.84
2023-05-20T02:17:11.570Z,100205.44
2023-05-20T02:20:16.134Z,100238.44
2023-05-20T02:23:20.378Z,100218.09
2023-05-20T02:26:24.583Z,100231.47
2023-05-20T02:29:28.604Z,100208.63
2023-05-20T02:32:34.472Z,100170.59
2023-05-20T02:35:40.168Z,100217.19
2023-05-20T02:38:44.654Z,100174.53
2023-05-20T02:41:48.584Z,100186.59
2023-05-20T02:44:54.231Z,100189.81
2023-05-20T02:47:58.477Z,100185.31
2023-05-20T02:51:02.660Z,100167.75
2023-05-20T02:54:07.301Z,100180.22
2023-05-20T02:57:11.588Z,100172.66
2023-05-20T03:00:15.771Z,100132.91
2023-05-20T03:03:20.138Z,100169.88
2023-05-20T03:06:24.578Z,100156.09
2023-05-20T03:09:29.120Z,100140.16
2023-05-20T03:12:33.038Z,100146.38
2023-05-20T03:15:37.726Z,100156.84
2023-05-20T03:18:41.911Z,100147.28
2023-05-20T03:21:47.467Z,100161.78
2023-05-20T03:24:53.536Z,100172.56
2023-05-20T03:27:59.226Z,100128.63
2023-05-20T03:31:04.831Z,100174.75
2023-05-20T03:34:09.684Z,100169.13
2023-05-20T03:37:13.801Z,100174.09
2023-05-20T03:40:17.806Z,100178.84
2023-05-20T03:43:25.945Z,100179.59
2023-05-20T03:46:33.494Z,100155.78
2023-05-20T03:49:37.691Z,100184.09
2023-05-20T03:52:44.472Z,100173.78
2023-05-20T03:55:51.293Z,100174.22
2023-05-20T03:59:00.671Z,100161.13
2023-05-20T04:02:09.263Z,100162.00
2023-05-20T04:05:13.519Z,100139.25
2023-05-20T04:08:19.594Z,100116.34
2023-05-20T04:11:25.971Z,100121.47
2023-05-20T04:14:33.766Z,100125.59
2023-05-20T04:17:39.392Z,100074.34
2023-05-20T04:20:44.273Z,100074.63
2023-05-20T04:23:51.007Z,100085.53
2023-05-20T04:26:55.468Z,100067.00
2023-05-20T04:29:59.708Z,100102.38
2023-05-20T04:33:05.180Z,100104.84
2023-05-20T04:36:13.048Z,100075.66
2023-05-20T04:39:35.884Z,100096.72
2023-05-20T04:42:40.638Z,100053.63
2023-05-20T04:45:44.531Z,100058.19
2023-05-20T04:48:49.600Z,100041.81
2023-05-20T04:51:56.028Z,100036.84
2023-05-20T04:55:02.789Z,100040.84
2023-05-20T04:58:08.901Z,100044.59
2023-05-20T05:01:13.136Z,100031.91
2023-05-20T05:04:21.719Z,100036.19
2023-05-20T05:07:26.447Z,100012.38
2023-05-20T05:10:32.457Z,100028.41
2023-05-20T05:13:37.424Z,100012.88
2023-05-20T05:16:41.304Z,99996.16
2023-05-20T05:19:46.242Z,99973.25
2023-05-20T05:22:51.722Z,99987.03
2023-05-20T05:25:56.392Z,99996.47
2023-05-20T05:29:01.071Z,99988.06
2023-05-20T05:32:05.579Z,99972.50
2023-05-20T05:35:09.987Z,99924.56
2023-05-20T05:38:17.446Z,99952.66
2023-05-20T05:41:22.363Z,99969.41
2023-05-20T05:44:27.969Z,99975.94
2023-05-20T05:47:33.414Z,100009.03
2023-05-20T05:50:37.882Z,99974.56
2023-05-20T05:53:41.896Z,99993.38
2023-05-20T05:56:49.022Z,99992.47
2023-05-20T05:59:53.062Z,99973.78
2023-05-20T06:02:58.774Z,99959.97
2023-05-20T06:06:09.323Z,99948.50
2023-05-20T06:09:13.583Z,99945.50
2023-05-20T06:12:18.193Z,99937.25
2023-05-20T06:15:22.273Z,99946.94
2023-05-20T06:18:26.454Z,99964.97
2023-05-20T06:21:34.195Z,99929.03
2023-05-20T06:24:38.779Z,99963.72
2023-05-20T06:27:43.181Z,99955.94
2023-05-20T06:30:50.605Z,99960.59
2023-05-20T06:33:54.792Z,99989.06
2023-05-20T06:36:58.838Z,99985.00
2023-05-20T06:40:04.051Z,99994.91
2023-05-20T06:43:11.220Z,100017.13
2023-05-20T06:46:30.405Z,100024.09
2023-05-20T06:49:41.967Z,100021.19
2023-05-20T06:52:46.046Z,100035.53
2023-05-20T06:55:51.915Z,100040.47
2023-05-20T06:58:57.793Z,100014.47
2023-05-20T07:02:03.033Z,100038.28
2023-05-20T07:05:15.433Z,100032.91
2023-05-20T07:08:19.569Z,100038.28
2023-05-20T07:11:31.914Z,99997.50
2023-05-20T07:14:37.021Z,99995.47
2023-05-20T07:17:41.720Z,100039.81
2023-05-20T07:20:46.235Z,100030.72
2023-05-20T07:24:03.697Z,100042.13
2023-05-20T07:27:10.253Z,100031.09
2023-05-20T07:30:14.600Z,100042.41
2023-05-20T07:33:24.031Z,100031.75
2023-05-20T07:36:29.654Z,100035.50
2023-05-20T07:39:39.319Z,100029.69
2023-05-20T07:42:46.136Z,100029.00
2023-05-20T07:45:54.506Z,100028.75
2023-05-20T07:48:58.667Z,100010.75
2023-05-20T07:52:04.116Z,100031.88
2023-05-20T07:55:09.080Z,100020.00
2023-05-20T07:58:15.219Z,99998.94
2023-05-20T08:01:19.443Z,100018.16
2023-05-20T08:04:24.022Z,100016.91
2023-05-20T08:07:35.091Z,100006.69
2023-05-20T08:10:39.096Z,100004.97
2023-05-20T08:13:43.674Z,99996.59
2023-05-20T08:16:49.134Z,99992.97
2023-05-20T08:19:53.472Z,99988.44
2023-05-20T08:22:57.389Z,99983.16
2023-05-20T08:26:05.082Z,99966.09
2023-05-20T08:29:13.572Z,99968.91
2023-05-20T08:32:21.161Z,99955.34
2023-05-20T08:35:31.467Z,99964.72
2023-05-20T08:38:35.892Z,99958.88
2023-05-20T08:41:40.582Z,99967.81
2023-05-20T08:44:49.455Z,99967.69
2023-05-20T08:47:55.427Z,99951.44
2023-05-20T08:51:00.729Z,99956.28
2023-05-20T08:54:04.927Z,99946.84
2023-05-20T08:57:10.488Z,99960.59
2023-05-20T09:00:19.188Z,99953.66
2023-05-20T09:03:24.616Z,99921.59
2023-05-20T09:06:28.335Z,99942.78
2023-05-20T09:09:34.533Z,99949.44
2023-05-20T09:12:42.260Z,99926.91
2023-05-20T09:15:46.508Z,99918.28
2023-05-20T09:18:53.126Z,99904.28
2023-05-20T09:21:57.330Z,99887.16
2023-05-20T09:25:01.563Z,99875.44
2023-05-20T09:28:12.844Z,99846.91
2023-05-20T09:31:16.856Z,99834.31
2023-05-20T09:34:24.381Z,99827.97
2023-05-20T09:37:29.778Z,99831.06
2023-05-20T09:40:38.569Z,99843.31
2023-05-20T09:43:43.494Z,99832.78
2023-05-20T09:46:49.787Z,99807.81
2023-05-20T09:49:54.577Z,99810.84
2023-05-20T09:53:03.511Z,99804.22
2023-05-20T09:56:07.784Z,99804.06
2023-05-20T09:59:12.761Z,99798.06
2023-05-20T10:02:19.051Z,99799.09
2023-05-20T10:05:38.864Z,99783.25
2023-05-20T10:09:00.835Z,99774.94
2023-05-20T10:12:11.554Z,99758.81
2023-05-20T10:15:25.865Z,99764.47
2023-05-20T10:18:35.199Z,99748.34
2023-05-20T10:21:39.516Z,99740.16
2023-05-20T10:24:45.582Z,99730.19
2023-05-20T10:27:49.773Z,99747.59
2023-05-20T10:30:54.213Z,99759.72
2023-05-20T10:34:02.080Z,99762.25
2023-05-20T10:37:06.744Z,99762.59
2023-05-20T10:40:16.218Z,99747.75
2023-05-20T10:43:30.224Z,99758.81
2023-05-20T10:46:51.444Z,99755.97
2023-05-20T10:49:59.361Z,99734.38
2023-05-20T10:53:29.278Z,99753.44
2023-05-20T10:56:36.965Z,99758.19
2023-05-20T10:59:43.424Z,99775.88
2023-05-20T11:02:50.561Z,99759.13
2023-05-20T11:05:54.517Z,99755.59
2023-05-20T11:09:08.300Z,99738.84
2023-05-20T11:12:12.805Z,99727.91
2023-05-20T11:15:17.454Z,99710.19
2023-05-20T11:18:23.413Z,99725.69
2023-05-20T11:21:27.455Z,99721.28
2023-05-20T11:24:33.459Z,99713.69
2023-05-20T11:27:40.924Z,99754.81
2023-05-20T11:30:45.019Z,99761.53
2023-05-20T11:33:53.785Z,99765.72
2023-05-20T11:36:59.251Z,99787.72
2023-05-20T11:40:10.889Z,99791.59
2023-05-20T11:43:16.195Z,99787.69
2023-05-20T11:56:22.856Z,99802.06
2023-05-20T11:59:30.283Z,99806.13
2023-05-20T12:02:34.622Z,99795.03
2023-05-20T12:05:45.093Z,99799.28
2023-05-20T12:08:49.247Z,99812.22
2023-05-20T12:11:56.633Z,99762.97
2023-05-20T12:15:00.743Z,99781.50
2023-05-20T12:18:08.390Z,99793.38
2023-05-20T12:21:12.779Z,99801.72
2023-05-20T12:24:19.020Z,99774.34
2023-05-20T12:27:23.574Z,99783.59
2023-05-20T12:30:30.459Z,99772.91
2023-05-20T12:33:38.134Z,99770.53
2023-05-20T12:36:42.185Z,99766.72
2023-05-20T12:39:46.231Z,99743.28
2023-05-20T12:42:50.157Z,99717.53
2023-05-20T12:45:55.324Z,99726.59
2023-05-20T12:48:59.153Z,99724.50
2023-05-20T12:52:08.534Z,99749.94
2023-05-20T12:55:15.907Z,99743.31
2023-05-20T12:58:20.031Z,99736.00
2023-05-20T13:01:24.001Z,99743.31
2023-05-20T13:04:30.362Z,99762.38
2023-05-20T13:07:34.407Z,99712.78
2023-05-20T13:10:41.317Z,99748.50
2023-05-20T13:13:45.272Z,99734.63
2023-05-20T13:16:57.575Z,99720.31
2023-05-20T13:20:03.381Z,99718.38
2023-05-20T13:23:08.997Z,99672.97
2023-05-20T13:26:14.246Z,99710.69
2023-05-20T13:29:19.856Z,99714.81
2023-05-20T13:32:23.857Z,99704.88
2023-05-20T13:35:31.826Z,99704.63
2023-05-20T13:38:37.423Z,99691.47
2023-05-20T13:41:42.241Z,99696.53
2023-05-20T13:44:46.384Z,99697.41
2023-05-20T13:47:52.924Z,99695.34
2023-05-20T13:50:56.889Z,99691.69
2023-05-20T13:54:01.866Z,99672.66
2023-05-20T13:57:11.651Z,99705.00
2023-05-20T14:00:19.110Z,99699.69
2023-05-20T14:03:23.177Z,99682.09
2023-05-20T14:06:28.413Z,99671.00
2023-05-20T14:09:32.318Z,99667.78
2023-05-20T14:12:36.386Z,99677.88
2023-05-20T14:15:40.405Z,99683.28
2023-05-20T14:18:44.787Z,99677.28
2023-05-20T14:21:48.814Z,99665.13
2023-05-20T14:24:55.622Z,99662.63
2023-05-20T14:27:59.512Z,99645.66
2023-05-20T14:31:03.845Z,99637.78
2023-05-20T14:34:07.806Z,99648.03
2023-05-20T14:37:12.926Z,99662.03
2023-05-20T14:40:17.330Z,99646.09
2023-05-20T14:43:22.282Z,99652.00
2023-05-20T14:46:26.274Z,99632.19
2023-05-20T14:49:33.751Z,99639.72
2023-05-20T14:52:37.696Z,99653.97
2023-05-20T14:55:44.753Z,99627.69
2023-05-20T14:58:48.705Z,99625.69
2023-05-20T15:01:52.798Z,99632.69
2023-05-20T15:04:58.598Z,99628.16
2023-05-20T15:08:02.291Z,99640.50
2023-05-20T15:11:06.159Z,99645.56
2023-05-20T15:14:11.274Z,99646.50
2023-05-20T15:17:18.054Z,99641.78
2023-05-20T15:20:22.452Z,99642.22
2023-05-20T15:23:27.135Z,99626.78
2023-05-20T15:26:37.205Z,99650.47
2023-05-20T15:29:44.325Z,99652.06
2023-05-20T15:32:50.121Z,99646.38
2023-05-20T15:35:54.081Z,99652.78
2023-05-20T15:38:58.217Z,99645.03
2023-05-20T15:42:03.660Z,99649.84
2023-05-20T15:45:08.157Z,99649.34
2023-05-20T15:48:15.349Z,99640.28
2023-05-20T15:51:19.757Z,99633.94
2023-05-20T15:54:23.779Z,99636.47
2023-05-20T15:57:27.881Z,99626.09
2023-05-20T16:00:32.231Z,99642.75
2023-05-20T16:03:41.540Z,99597.25
2023-05-20T16:06:48.208Z,99630.94
2023-05-20T16:09:52.401Z,99597.38
2023-05-20T16:12:56.390Z,99609.78
2023-05-20T16:16:09.748Z,99458.22
2023-05-20T16:19:14.497Z,99609.81
2023-05-20T16:22:19.835Z,99605.63
2023-05-20T16:25:23.946Z,99578.88
2023-05-20T16:28:28.028Z,99590.81
2023-05-20T16:31:31.939Z,99590.66
2023-05-20T16:34:36.144Z,99594.91
2023-05-20T16:37:40.618Z,99591.38
2023-05-20T16:40:44.872Z,99597.00
2023-05-20T16:43:48.793Z,99588.06
2023-05-20T16:46:54.141Z,99594.16
2023-05-20T16:49:58.316Z,99593.66
2023-05-20T16:53:02.725Z,99593.31
2023-05-20T16:56:09.691Z,99582.81
2023-05-20T16:59:15.593Z,99569.56
2023-05-20T17:02:19.445Z,99547.56
2023-05-20T17:05:23.981Z,99565.09
2023-05-20T17:08:28.431Z,99540.03
2023-05-20T17:11:32.404Z,99553.56
2023-05-20T17:14:37.677Z,99545.91
2023-05-20T17:17:42.027Z,99530.09
2023-05-20T17:21:11.161Z,99405.72
2023-05-20T17:24:16.887Z,99533.84
2023-05-20T17:27:21.112Z,99535.50
2023-05-20T17:30:25.274Z,99515.53
2023-05-20T17:33:29.305Z,99371.25
2023-05-20T17:36:33.597Z,99503.16
2023-05-20T17:39:38.183Z,99489.56
2023-05-20T17:42:42.391Z,99496.38
2023-05-20T17:45:46.574Z,99489.94
2023-05-20T17:48:50.909Z,99484.91
2023-05-20T17:51:57.232Z,99484.13
2023-05-20T17:55:03.323Z,99478.97
2023-05-20T17:58:09.946Z,99480.41
2023-05-20T18:01:14.064Z,99474.13
2023-05-20T18:04:20.134Z,99481.06
2023-05-20T18:07:24.318Z,99485.53
2023-05-20T18:10:31.298Z,99481.69
2023-05-20T18:13:35.380Z,99491.41
2023-05-20T18:16:39.471Z,99483.53
2023-05-20T18:19:43.653Z,99484.22
2023-05-20T18:27:03.418Z,99426.28
2023-05-20T18:30:08.911Z,99469.63
2023-05-20T18:33:16.709Z,99400.03
2023-05-20T18:36:23.521Z,99457.88
2023-05-20T18:39:27.912Z,99428.44
2023-05-20T18:42:33.468Z,99407.41
2023-05-20T18:45:37.645Z,99409.91
2023-05-20T18:48:41.648Z,99435.31
2023-05-20T18:51:46.098Z,99439.97
2023-05-20T18:54:50.813Z,99422.31
2023-05-20T18:57:55.402Z,99439.44
2023-05-20T19:00:59.587Z,99431.56
2023-05-20T19:04:03.942Z,99399.31
2023-05-20T19:07:07.931Z,99410.03
2023-05-20T19:10:12.623Z,99431.97
2023-05-20T19:13:16.678Z,99416.78
2023-05-20T19:16:24.159Z,99405.78
2023-05-20T19:19:28.260Z,99418.56
2023-05-20T19:22:40.341Z,99417.69
2023-05-20T19:25:44.952Z,99428.66
2023-05-20T19:28:49.176Z,99436.66
2023-05-20T19:31:53.078Z,99427.63
2023-05-20T19:34:57.263Z,99431.38
2023-05-20T19:38:05.615Z,99437.56
2023-05-20T19:41:11.416Z,99430.94
2023-05-20T19:44:17.976Z,99413.63
2023-05-20T19:47:22.668Z,99438.34
2023-05-20T19:50:27.337Z,99441.84
2023-05-20T19:53:31.472Z,99435.16
2023-05-20T19:56:35.422Z,99423.50
2023-05-20T19:59:39.741Z,99445.38
2023-05-20T20:02:49.439Z,99445.31
2023-05-20T20:05:53.972Z,99445.69
2023-05-20T20:08:58.102Z,99447.41
2023-05-20T20:12:05.033Z,99438.59
2023-05-20T20:15:09.788Z,99444.56
2023-05-20T20:18:22.259Z,99447.91
2023-05-20T20:21:29.746Z,99448.69
2023-05-20T20:24:33.843Z,99454.63
2023-05-20T20:27:40.528Z,99456.72
2023-05-20T20:30:45.251Z,99442.72
2023-05-20T20:33:49.832Z,99443.41
2023-05-20T20:36:55.705Z,99440.03
2023-05-20T20:39:59.509Z,99449.09
2023-05-20T20:43:05.803Z,99387.38
2023-05-20T20:46:12.068Z,99425.47
2023-05-20T20:49:16.303Z,99424.13
2023-05-20T20:52:20.695Z,99439.91
2023-05-20T20:55:25.166Z,99426.47
2023-05-20T20:58:29.113Z,99431.44
2023-05-20T21:01:37.027Z,99430.53
2023-05-20T21:04:43.290Z,99405.56
2023-05-20T21:07:50.702Z,99429.59
2023-05-20T21:11:01.114Z,99388.91
2023-05-20T21:14:05.953Z,99402.25
2023-05-20T21:17:10.623Z,99425.28
2023-05-20T21:20:16.261Z,99424.16
2023-05-20T21:23:22.834Z,99419.34
2023-05-20T21:26:27.450Z,99396.28
2023-05-20T21:29:32.094Z,99387.72
2023-05-20T21:32:36.238Z,99369.97
2023-05-20T21:35:40.162Z,99398.53
2023-05-20T21:38:44.231Z,99397.19
2023-05-20T21:41:48.446Z,99410.13
2023-05-20T21:44:52.582Z,99406.53
2023-05-20T21:47:56.581Z,99395.69
2023-05-20T21:51:00.676Z,99394.34
2023-05-20T21:54:04.932Z,99408.97
2023-05-20T21:57:08.975Z,99397.78
2023-05-20T22:00:15.744Z,99400.84
2023-05-20T22:03:20.390Z,99399.56
2023-05-20T22:06:24.623Z,99397.06
2023-05-20T22:09:28.896Z,99397.63
2023-05-20T22:12:32.825Z,99396.25
2023-05-20T22:15:37.228Z,99386.47
2023-05-20T22:18:42.175Z,99343.75
2023-05-20T22:21:50.771Z,99388.56
2023-05-20T22:24:55.185Z,99391.53
2023-05-20T22:27:59.234Z,99402.59
2023-05-20T22:31:03.213Z,99358.06
2023-05-20T22:34:07.649Z,99354.81
2023-05-20T22:37:13.027Z,99394.69
2023-05-20T22:40:19.935Z,99393.84
2023-05-20T22:43:24.421Z,99398.78
2023-05-20T22:46:28.520Z,99396.59
2023-05-20T22:49:33.342Z,99348.06
2023-05-20T22:52:37.823Z,99400.75
2023-05-20T22:55:42.115Z,99393.03
2023-05-20T22:58:46.599Z,99383.19
2023-05-20T23:01:50.689Z,99393.69
2023-05-20T23:04:58.050Z,99390.41
2023-05-20T23:08:04.386Z,99385.44
2023-05-20T23:11:08.979Z,99399.31
2023-05-20T23:14:12.954Z,99400.13
2023-05-20T23:17:16.975Z,99392.13
2023-05-20T23:20:23.014Z,99389.13
2023-05-20T23:23:31.047Z,99397.94
2023-05-20T23:26:38.245Z,99398.38
2023-05-20T23:29:43.046Z,99401.44
2023-05-20T23:32:47.155Z,99391.13
2023-05-20T23:35:51.622Z,99395.75
2023-05-20T23:38:56.799Z,99392.97
2023-05-20T23:42:01.297Z,99344.78
2023-05-20T23:45:06.105Z,99394.06
2023-05-20T23:48:14.166Z,99373.44
2023-05-20T23:51:18.065Z,99386.56
2023-05-20T23:54:23.706Z,99374.50
2023-05-20T23:57:28.175Z,99385.13
